createdAt,value
2023-03-17T00:05:17.647Z,11.50
2023-03-17T00:10:40.287Z,14.45
2023-03-17T00:16:05.126Z,15.05
2023-03-17T00:26:58.111Z,11.07
2023-03-17T00:32:28.929Z,11.75
2023-03-17T00:37:53.696Z,12.60
2023-03-17T00:43:21.840Z,13.95
2023-03-17T00:48:46.781Z,18.17
2023-03-17T00:54:15.606Z,23.50
2023-03-17T00:59:44.504Z,24.40
2023-03-17T01:05:14.550Z,21.17
2023-03-17T01:10:43.770Z,17.63
2023-03-17T01:16:08.139Z,15.15
2023-03-17T01:21:36.149Z,16.75
2023-03-17T01:27:01.704Z,16.08
2023-03-17T01:32:29.957Z,16.00
2023-03-17T01:37:59.810Z,15.30
2023-03-17T01:43:29.514Z,15.68
2023-03-17T01:49:05.929Z,17.85
2023-03-17T01:54:40.951Z,19.10
2023-03-17T02:00:10.497Z,18.42
2023-03-17T02:05:37.046Z,18.77
2023-03-17T02:11:08.827Z,18.00
2023-03-17T02:16:32.579Z,16.60
2023-03-17T02:22:02.789Z,16.38
2023-03-17T02:27:31.192Z,19.42
2023-03-17T02:32:59.925Z,19.30
2023-03-17T02:38:29.357Z,19.13
2023-03-17T02:44:00.134Z,16.48
2023-03-17T02:49:24.125Z,13.20
2023-03-17T02:54:48.567Z,13.55
2023-03-17T03:00:17.595Z,13.25
2023-03-17T03:05:45.914Z,13.37
2023-03-17T03:11:12.151Z,12.65
2023-03-17T03:16:41.274Z,13.25
2023-03-17T03:22:10.033Z,12.87
2023-03-17T03:27:40.988Z,12.95
2023-03-17T03:33:09.468Z,12.80
2023-03-17T03:38:38.200Z,13.90
2023-03-17T03:44:08.276Z,13.53
2023-03-17T03:49:36.984Z,13.50
2023-03-17T03:55:05.146Z,14.82
2023-03-17T04:00:35.441Z,14.85
2023-03-17T04:06:04.498Z,15.85
2023-03-17T04:17:05.623Z,19.05
2023-03-17T04:22:29.005Z,17.25
2023-03-17T04:27:57.178Z,16.38
2023-03-17T04:33:21.497Z,14.88
2023-03-17T04:38:44.439Z,14.00
2023-03-17T04:44:07.158Z,12.68
2023-03-17T04:49:31.393Z,13.15
2023-03-17T04:54:54.137Z,14.23
2023-03-17T05:00:17.125Z,15.35
2023-03-17T05:05:40.900Z,15.25
2023-03-17T05:11:02.647Z,14.52
2023-03-17T05:16:31.313Z,14.98
2023-03-17T05:22:01.564Z,14.38
2023-03-17T05:27:30.245Z,13.63
2023-03-17T05:32:59.140Z,14.23
2023-03-17T05:38:28.373Z,15.20
2023-03-17T05:43:57.087Z,15.25
2023-03-17T05:49:22.035Z,14.63
2023-03-17T05:54:48.913Z,14.68
2023-03-17T06:00:13.311Z,15.63
2023-03-17T06:05:37.630Z,16.13
2023-03-17T06:11:07.808Z,14.67
2023-03-17T06:16:33.075Z,14.50
2023-03-17T06:22:02.211Z,15.30
2023-03-17T06:27:32.574Z,15.70
2023-03-17T06:33:01.713Z,14.63
2023-03-17T06:38:30.181Z,14.23
2023-03-17T06:44:00.507Z,16.13
2023-03-17T06:49:23.883Z,16.65
2023-03-17T06:54:47.016Z,17.70
2023-03-17T07:00:16.039Z,18.65
2023-03-17T07:05:44.944Z,17.48
2023-03-17T07:11:13.169Z,17.70
2023-03-17T07:16:38.193Z,16.88
2023-03-17T07:22:05.142Z,18.73
2023-03-17T07:27:28.548Z,21.10
2023-03-17T07:32:58.329Z,19.27
2023-03-17T07:38:27.544Z,20.70
2023-03-17T07:43:50.611Z,20.92
2023-03-17T07:49:30.762Z,19.67
2023-03-17T07:55:12.515Z,18.73
2023-03-17T08:00:35.869Z,19.90
2023-03-17T08:11:32.408Z,17.02
2023-03-17T08:16:54.654Z,18.10
2023-03-17T08:22:22.719Z,19.13
2023-03-17T08:27:49.014Z,18.20
2023-03-17T08:33:17.528Z,15.18
2023-03-17T08:38:46.865Z,16.53
2023-03-17T08:44:16.779Z,17.55
2023-03-17T08:49:45.598Z,14.00
2023-03-17T08:55:11.815Z,14.02
2023-03-17T09:00:41.770Z,13.52
2023-03-17T09:06:11.679Z,13.45
2023-03-17T09:11:40.226Z,12.88
2023-03-17T09:17:05.995Z,14.95
2023-03-17T09:22:28.816Z,12.73
2023-03-17T09:27:57.257Z,14.02
2023-03-17T09:33:23.936Z,13.38
2023-03-17T09:38:52.982Z,12.95
2023-03-17T09:44:19.542Z,12.20
2023-03-17T09:49:48.338Z,13.65
2023-03-17T09:55:18.217Z,13.93
2023-03-17T10:00:47.318Z,12.95
2023-03-17T10:06:34.685Z,13.13
2023-03-17T10:12:05.894Z,11.98
2023-03-17T10:17:31.894Z,12.80
2023-03-17T10:22:59.071Z,11.98
2023-03-17T10:28:28.852Z,12.32
2023-03-17T10:33:53.739Z,10.88
2023-03-17T10:39:18.739Z,12.38
2023-03-17T10:44:45.074Z,13.80
2023-03-17T10:50:21.521Z,12.50
2023-03-17T10:55:52.464Z,11.95
2023-03-17T11:01:20.202Z,11.98
2023-03-17T11:06:44.263Z,12.50
2023-03-17T11:12:22.840Z,12.75
2023-03-17T11:17:54.381Z,12.23
2023-03-17T11:23:28.670Z,11.15
2023-03-17T11:29:04.026Z,12.25
2023-03-17T11:34:40.409Z,10.98
2023-03-17T11:40:16.311Z,10.80
2023-03-17T11:45:50.765Z,10.65
2023-03-17T11:51:17.526Z,11.43
2023-03-17T11:56:42.871Z,12.30
2023-03-17T12:02:19.468Z,11.45
2023-03-17T12:07:45.335Z,10.73
2023-03-17T12:13:10.549Z,11.85
2023-03-17T12:18:36.039Z,11.55
2023-03-17T12:24:03.278Z,12.70
2023-03-17T12:29:36.420Z,12.18
2023-03-17T12:35:19.873Z,12.35
2023-03-17T12:40:53.465Z,12.90
2023-03-17T12:46:28.423Z,11.98
2023-03-17T12:52:02.696Z,12.98
2023-03-17T12:57:28.749Z,11.98
2023-03-17T13:03:09.678Z,12.63
2023-03-17T13:08:41.279Z,13.48
2023-03-17T13:14:17.368Z,14.20
2023-03-17T13:19:48.201Z,14.35
2023-03-17T13:25:30.841Z,13.85
2023-03-17T13:31:15.415Z,14.18
2023-03-17T13:36:42.916Z,13.23
2023-03-17T13:42:20.583Z,13.70
2023-03-17T13:47:44.555Z,14.23
2023-03-17T13:53:11.752Z,14.43
2023-03-17T13:58:50.080Z,14.40
2023-03-17T14:04:17.885Z,12.98
2023-03-17T14:09:41.595Z,10.70
2023-03-17T14:15:08.412Z,12.43
2023-03-17T14:20:31.799Z,10.38
2023-03-17T14:26:00.829Z,9.82
2023-03-17T14:31:30.895Z,11.03
2023-03-17T14:37:02.196Z,11.77
2023-03-17T14:42:27.401Z,12.30
2023-03-17T14:47:58.080Z,11.32
2023-03-17T14:53:24.054Z,8.80
2023-03-17T14:58:47.927Z,8.63
2023-03-17T15:04:14.226Z,8.07
2023-03-17T15:09:41.399Z,8.35
2023-03-17T15:15:05.770Z,7.15
2023-03-17T15:20:35.377Z,6.35
2023-03-17T15:26:09.421Z,6.07
2023-03-17T15:31:38.109Z,8.30
2023-03-17T15:37:04.170Z,6.80
2023-03-17T15:42:28.001Z,7.60
2023-03-17T15:47:57.097Z,6.40
2023-03-17T15:53:26.455Z,6.82
2023-03-17T15:58:54.948Z,6.72
2023-03-17T16:04:23.426Z,6.05
2023-03-17T16:09:48.307Z,7.22
2023-03-17T16:15:22.895Z,6.95
2023-03-17T16:20:47.318Z,7.80
2023-03-17T16:26:17.379Z,10.73
2023-03-17T16:31:43.034Z,10.52
2023-03-17T16:37:09.549Z,10.98
2023-03-17T16:42:41.519Z,11.25
2023-03-17T16:48:13.131Z,10.38
2023-03-17T16:53:42.215Z,11.75
2023-03-17T16:59:15.542Z,10.95
2023-03-17T17:04:41.216Z,11.73
2023-03-17T17:10:07.472Z,11.10
2023-03-17T17:15:38.039Z,10.00
2023-03-17T17:21:07.238Z,15.48
2023-03-17T17:26:30.196Z,12.27
2023-03-17T17:32:00.574Z,13.87
2023-03-17T17:37:29.181Z,13.82
2023-03-17T17:42:58.858Z,13.60
2023-03-17T17:48:29.011Z,12.70
2023-03-17T17:53:51.687Z,13.43
2023-03-17T17:59:14.251Z,14.10
2023-03-17T18:04:38.889Z,13.90
2023-03-17T18:10:02.293Z,14.93
2023-03-17T18:15:26.606Z,14.80
2023-03-17T18:20:51.332Z,15.40
2023-03-17T18:26:15.248Z,19.67
2023-03-17T18:31:40.720Z,19.40
2023-03-17T18:37:07.850Z,20.90
2023-03-17T18:42:31.051Z,17.35
2023-03-17T18:47:54.068Z,17.95
2023-03-17T18:53:18.500Z,17.48
2023-03-17T18:58:41.759Z,18.30
2023-03-17T19:04:05.775Z,19.42
2023-03-17T19:09:30.707Z,18.08
2023-03-17T19:14:53.873Z,18.38
2023-03-17T19:20:17.179Z,17.70
2023-03-17T19:25:41.834Z,18.25
2023-03-17T19:31:05.084Z,19.52
2023-03-17T19:36:28.321Z,17.88
2023-03-17T19:41:55.260Z,17.67
2023-03-17T19:47:18.104Z,16.58
2023-03-17T19:52:40.795Z,17.90
2023-03-17T19:58:06.411Z,16.33
2023-03-17T20:03:28.979Z,15.20
2023-03-17T20:08:52.688Z,14.45
2023-03-17T20:14:17.297Z,16.90
2023-03-17T20:19:46.232Z,14.90
2023-03-17T20:25:10.699Z,13.85
2023-03-17T20:30:37.272Z,13.20
2023-03-17T20:36:05.634Z,13.95
2023-03-17T20:41:34.001Z,14.07
2023-03-17T20:46:59.149Z,13.40
2023-03-17T20:52:26.257Z,12.52
2023-03-17T20:57:58.767Z,14.13
2023-03-17T21:03:22.573Z,14.23
2023-03-17T21:08:51.231Z,16.23
2023-03-17T21:14:14.198Z,17.48
2023-03-17T21:19:44.745Z,16.58
2023-03-17T21:25:13.449Z,16.15
2023-03-17T21:30:43.638Z,15.23
2023-03-17T21:36:08.755Z,14.57
2023-03-17T21:41:33.308Z,14.60
2023-03-17T21:46:58.445Z,12.75
2023-03-17T21:52:28.747Z,13.52
2023-03-17T22:03:25.642Z,13.68
2023-03-17T22:08:52.218Z,14.35
2023-03-17T22:14:20.702Z,14.02
2023-03-17T22:19:49.516Z,14.98
2023-03-17T22:25:21.673Z,14.85
2023-03-17T22:30:51.135Z,15.05
2023-03-17T22:36:19.301Z,16.13
2023-03-17T22:41:49.760Z,15.45
2023-03-17T22:47:13.028Z,14.55
2023-03-17T22:52:37.188Z,14.05
2023-03-17T22:58:07.571Z,13.75
2023-03-17T23:03:37.145Z,12.05
2023-03-17T23:09:06.382Z,13.05
2023-03-17T23:14:37.385Z,12.55
2023-03-17T23:20:00.706Z,12.60
2023-03-17T23:25:29.351Z,13.33
2023-03-17T23:30:59.521Z,12.33
2023-03-17T23:36:24.798Z,10.82
2023-03-17T23:41:52.995Z,11.20
2023-03-17T23:47:22.887Z,12.75
2023-03-17T23:52:47.186Z,10.20
2023-03-17T23:58:10.113Z,10.20
